Time;durP1;ratioP1;P1;durP2;ratioP2;P2;SDS_P1;SDS_P2;PMS_P1;PMS_P2;Temp;Humidity;BMP_temperature;BMP_pressure;BME280_temperature;BME280_humidity;BME280_pressure;Samples;Min_cycle;Max_cycle;Signal;HPM_P1;HPM_P2
2020/12/13 00:01:36;;;;;;;41.57;22.30;;;;;;;;;;5034201;28;20176;-78
2020/12/13 00:04:01;;;;;;;39.50;22.33;;;;;;;;;;5034327;28;20173;-78
2020/12/13 00:06:29;;;;;;;45.93;23.87;;;;;;;;;;5033791;28;20203;-78
2020/12/13 00:08:54;;;;;;;50.93;26.17;;;;;;;;;;5034574;28;20187;-78
2020/12/13 00:11:20;;;;;;;45.27;24.17;;;;;;;;;;5033580;28;20169;-78
2020/12/13 00:13:45;;;;;;;45.73;24.37;;;;;;;;;;5033977;28;20176;-78
2020/12/13 00:16:13;;;;;;;48.30;25.00;;;;;;;;;;5034010;28;20697;-78
2020/12/13 00:18:38;;;;;;;50.47;25.17;;;;;;;;;;5032673;28;20168;-78
2020/12/13 00:21:04;;;;;;;50.90;28.00;;;;;;;;;;5034147;28;20184;-78
2020/12/13 00:23:29;;;;;;;55.50;29.80;;;;;;;;;;5033485;28;20169;-78
2020/12/13 00:25:54;;;;;;;44.63;24.13;;;;;;;;;;5033967;28;20181;-79
2020/12/13 00:28:20;;;;;;;43.57;25.07;;;;;;;;;;5034010;28;20204;-78
2020/12/13 00:30:45;;;;;;;57.67;30.47;;;;;;;;;;5033911;28;20526;-78
2020/12/13 00:33:10;;;;;;;50.13;25.30;;;;;;;;;;5033947;28;20266;-78
2020/12/13 00:35:36;;;;;;;50.90;26.50;;;;;;;;;;5033612;28;20247;-78
2020/12/13 00:38:01;;;;;;;43.03;24.40;;;;;;;;;;5033326;28;20168;-78
2020/12/13 00:40:26;;;;;;;44.27;25.67;;;;;;;;;;5033881;28;20726;-78
2020/12/13 00:42:52;;;;;;;46.83;26.90;;;;;;;;;;5033646;28;20594;-79
2020/12/13 00:45:17;;;;;;;55.20;29.73;;;;;;;;;;5034407;28;20632;-78
2020/12/13 00:47:43;;;;;;;52.07;30.63;;;;;;;;;;5034958;28;20200;-78
2020/12/13 00:50:09;;;;;;;51.00;27.80;;;;;;;;;;5035228;28;20177;-78
2020/12/13 00:52:39;;;;;;;56.03;29.17;;;;;;;;;;5034698;28;20172;-78
2020/12/13 00:55:05;;;;;;;65.93;32.67;;;;;;;;;;5034906;28;20161;-78
2020/12/13 00:57:30;;;;;;;53.10;26.53;;;;;;;;;;5035076;28;20180;-78
2020/12/13 00:59:55;;;;;;;62.47;29.30;;;;;;;;;;5034422;28;20584;-78
2020/12/13 01:02:21;;;;;;;58.60;26.87;;;;;;;;;;5034455;28;20264;-78
2020/12/13 01:04:46;;;;;;;61.30;27.97;;;;;;;;;;5034920;28;20164;-78
2020/12/13 01:07:12;;;;;;;54.83;27.47;;;;;;;;;;5034287;28;20208;-78
2020/12/13 01:09:37;;;;;;;50.77;24.97;;;;;;;;;;5034329;28;20179;-78
2020/12/13 01:12:04;;;;;;;44.63;22.93;;;;;;;;;;5034593;28;20226;-78
2020/12/13 01:14:30;;;;;;;47.70;24.47;;;;;;;;;;5034513;28;20177;-78
2020/12/13 01:16:55;;;;;;;50.87;26.33;;;;;;;;;;5034269;28;20196;-78
2020/12/13 01:19:21;;;;;;;43.23;23.23;;;;;;;;;;5034386;28;20624;-78
2020/12/13 01:21:47;;;;;;;57.73;28.10;;;;;;;;;;5034415;28;20217;-78
2020/12/13 01:24:12;;;;;;;47.07;24.53;;;;;;;;;;5034414;28;20260;-78
2020/12/13 01:26:37;;;;;;;52.50;25.70;;;;;;;;;;5033483;28;20204;-79
2020/12/13 01:29:03;;;;;;;40.60;22.73;;;;;;;;;;5034042;28;20260;-78
2020/12/13 01:31:28;;;;;;;36.23;18.70;;;;;;;;;;5033901;28;20195;-78
2020/12/13 01:33:53;;;;;;;44.10;24.77;;;;;;;;;;5034487;28;20168;-78
2020/12/13 01:36:20;;;;;;;41.70;20.63;;;;;;;;;;5033841;28;20270;-78
2020/12/13 01:38:45;;;;;;;51.17;24.60;;;;;;;;;;5033861;28;20227;-78
2020/12/13 01:41:11;;;;;;;42.77;21.73;;;;;;;;;;5033830;28;20172;-78
2020/12/13 01:43:36;;;;;;;41.47;21.40;;;;;;;;;;5034054;28;20168;-78
2020/12/13 01:46:02;;;;;;;40.13;21.03;;;;;;;;;;5034058;28;20586;-78
2020/12/13 01:48:28;;;;;;;44.10;22.67;;;;;;;;;;5034592;28;20257;-78
2020/12/13 01:53:24;;;;;;;49.03;23.47;;;;;;;;;;5034074;28;20177;-78
2020/12/13 01:55:50;;;;;;;47.63;25.20;;;;;;;;;;5033945;28;20180;-78
2020/12/13 01:58:23;;;;;;;53.60;25.83;;;;;;;;;;5033560;28;20216;-78
2020/12/13 02:00:49;;;;;;;56.43;26.77;;;;;;;;;;5034246;28;20164;-78
2020/12/13 02:03:21;;;;;;;48.77;24.20;;;;;;;;;;5033870;28;20168;-78
2020/12/13 02:05:53;;;;;;;56.33;26.30;;;;;;;;;;5033820;28;20183;-78
2020/12/13 02:08:21;;;;;;;54.87;26.10;;;;;;;;;;5034238;28;20212;-78
2020/12/13 02:10:46;;;;;;;53.33;25.77;;;;;;;;;;5033755;28;20679;-78
2020/12/13 02:13:11;;;;;;;56.33;27.37;;;;;;;;;;5034016;28;20267;-78
2020/12/13 02:15:36;;;;;;;52.13;25.47;;;;;;;;;;5033443;28;20264;-78
2020/12/13 02:18:02;;;;;;;54.17;26.93;;;;;;;;;;5033967;28;20175;-78
2020/12/13 02:20:27;;;;;;;55.90;28.70;;;;;;;;;;5033728;28;20211;-78
2020/12/13 02:22:52;;;;;;;58.87;30.33;;;;;;;;;;5033730;28;20172;-78
2020/12/13 02:25:22;;;;;;;57.77;27.83;;;;;;;;;;5033619;28;20183;-78
2020/12/13 02:27:50;;;;;;;48.13;24.07;;;;;;;;;;5033855;28;20227;-78
2020/12/13 02:30:16;;;;;;;56.57;26.80;;;;;;;;;;5033494;28;20258;-78
2020/12/13 02:32:42;;;;;;;53.30;23.97;;;;;;;;;;5033714;28;20623;-78
2020/12/13 02:35:08;;;;;;;49.47;24.97;;;;;;;;;;5033352;28;20180;-78
2020/12/13 02:37:33;;;;;;;52.00;25.37;;;;;;;;;;5036351;28;20543;-78
2020/12/13 02:39:59;;;;;;;46.50;23.67;;;;;;;;;;5037421;28;20169;-78
2020/12/13 02:42:24;;;;;;;55.37;24.90;;;;;;;;;;5037422;28;20612;-78
2020/12/13 02:44:50;;;;;;;43.63;22.33;;;;;;;;;;5037893;28;20169;-78
2020/12/13 02:47:15;;;;;;;51.10;25.73;;;;;;;;;;5037221;28;20744;-78
2020/12/13 02:49:41;;;;;;;52.90;28.60;;;;;;;;;;5036965;28;20196;-78
2020/12/13 02:52:07;;;;;;;52.83;25.47;;;;;;;;;;5037357;28;20177;-78
2020/12/13 02:54:32;;;;;;;49.23;23.33;;;;;;;;;;5037254;28;20176;-78
2020/12/13 02:56:57;;;;;;;58.87;29.03;;;;;;;;;;5036895;28;20200;-78
2020/12/13 02:59:22;;;;;;;54.03;24.63;;;;;;;;;;5036824;28;20221;-78
2020/12/13 03:01:48;;;;;;;47.67;22.47;;;;;;;;;;5037296;28;20218;-78
2020/12/13 03:04:13;;;;;;;55.50;26.90;;;;;;;;;;5036992;28;20639;-78
2020/12/13 03:06:38;;;;;;;45.10;23.23;;;;;;;;;;5037176;28;20257;-78
2020/12/13 03:09:04;;;;;;;51.37;25.00;;;;;;;;;;5036676;28;20527;-78
2020/12/13 03:11:29;;;;;;;51.07;24.10;;;;;;;;;;5036679;28;20169;-78
2020/12/13 03:13:55;;;;;;;47.17;23.23;;;;;;;;;;5036832;28;20169;-78
2020/12/13 03:16:20;;;;;;;55.67;26.27;;;;;;;;;;5036519;28;20165;-78
2020/12/13 03:18:45;;;;;;;46.87;24.20;;;;;;;;;;5037047;28;20168;-78
2020/12/13 03:21:11;;;;;;;46.70;22.17;;;;;;;;;;5036724;28;20177;-78
2020/12/13 03:23:36;;;;;;;47.07;23.73;;;;;;;;;;5036685;28;20489;-78
2020/12/13 03:26:01;;;;;;;48.60;22.43;;;;;;;;;;5036565;28;20642;-78
2020/12/13 03:28:27;;;;;;;47.63;23.43;;;;;;;;;;5036529;28;20200;-78
2020/12/13 03:30:52;;;;;;;52.70;26.73;;;;;;;;;;5036374;28;20659;-78
2020/12/13 03:33:17;;;;;;;50.23;22.73;;;;;;;;;;5036211;28;20665;-78
2020/12/13 03:35:43;;;;;;;51.40;25.10;;;;;;;;;;5036176;28;20259;-78
2020/12/13 03:38:08;;;;;;;51.43;24.47;;;;;;;;;;5036596;28;20183;-78
2020/12/13 03:40:33;;;;;;;45.07;22.07;;;;;;;;;;5035826;28;20179;-79
2020/12/13 03:42:59;;;;;;;47.87;24.77;;;;;;;;;;5035945;28;20207;-78
2020/12/13 03:45:24;;;;;;;49.17;23.17;;;;;;;;;;5036616;28;20168;-78
2020/12/13 03:47:49;;;;;;;42.97;22.87;;;;;;;;;;5035106;28;20196;-78
2020/12/13 03:50:15;;;;;;;46.33;24.40;;;;;;;;;;5035922;28;20180;-78
2020/12/13 03:52:40;;;;;;;48.43;22.60;;;;;;;;;;5036396;28;20173;-78
2020/12/13 03:55:05;;;;;;;45.47;24.87;;;;;;;;;;5034858;28;20229;-77
2020/12/13 03:57:30;;;;;;;45.73;23.13;;;;;;;;;;5036010;28;20263;-77
2020/12/13 03:59:56;;;;;;;41.30;20.37;;;;;;;;;;5036274;28;20231;-78
2020/12/13 04:02:21;;;;;;;38.50;19.43;;;;;;;;;;5036569;28;20169;-78
2020/12/13 04:04:46;;;;;;;35.87;21.37;;;;;;;;;;5036297;28;20345;-78
2020/12/13 04:07:12;;;;;;;34.37;20.37;;;;;;;;;;5035591;28;20197;-77
2020/12/13 04:09:37;;;;;;;37.47;21.33;;;;;;;;;;5035552;28;20173;-78
2020/12/13 04:12:03;;;;;;;32.07;18.30;;;;;;;;;;5035499;28;20218;-77
2020/12/13 04:14:28;;;;;;;33.67;19.03;;;;;;;;;;5035956;28;20211;-78
2020/12/13 04:16:53;;;;;;;35.20;19.77;;;;;;;;;;5035359;28;20173;-78
2020/12/13 04:19:18;;;;;;;31.67;19.20;;;;;;;;;;5035686;28;20264;-78
2020/12/13 04:21:44;;;;;;;27.37;16.90;;;;;;;;;;5035342;28;20172;-78
2020/12/13 04:24:09;;;;;;;37.67;20.30;;;;;;;;;;5035880;28;20174;-78
2020/12/13 04:26:35;;;;;;;35.87;20.03;;;;;;;;;;5035253;28;20238;-78
2020/12/13 04:29:00;;;;;;;31.30;18.90;;;;;;;;;;5035433;28;20176;-77
2020/12/13 04:31:25;;;;;;;32.43;19.90;;;;;;;;;;5035060;28;20551;-78
2020/12/13 04:33:50;;;;;;;53.30;30.60;;;;;;;;;;5035301;28;20169;-77
2020/12/13 04:36:16;;;;;;;34.77;21.90;;;;;;;;;;5035573;28;20179;-77
2020/12/13 04:38:41;;;;;;;68.77;35.97;;;;;;;;;;5035325;28;20169;-78
2020/12/13 04:41:07;;;;;;;65.43;36.67;;;;;;;;;;5035289;28;20192;-77
2020/12/13 04:43:32;;;;;;;39.47;22.60;;;;;;;;;;5034949;28;20543;-78
2020/12/13 04:45:58;;;;;;;34.07;19.57;;;;;;;;;;5035014;28;20173;-78
2020/12/13 04:48:23;;;;;;;36.80;21.17;;;;;;;;;;5035024;28;20210;-78
2020/12/13 04:50:49;;;;;;;35.53;20.40;;;;;;;;;;5035439;28;20195;-78
2020/12/13 04:53:15;;;;;;;33.13;20.00;;;;;;;;;;5035264;28;20164;-77
2020/12/13 04:55:52;;;;;;;33.63;19.67;;;;;;;;;;5034673;28;20222;-78
2020/12/13 04:58:19;;;;;;;31.40;18.43;;;;;;;;;;5035147;28;20231;-77
2020/12/13 05:00:49;;;;;;;31.93;19.40;;;;;;;;;;5034042;28;20222;-78
2020/12/13 05:03:15;;;;;;;27.90;18.47;;;;;;;;;;5035337;28;20169;-78
2020/12/13 05:05:41;;;;;;;38.77;24.07;;;;;;;;;;5034698;28;20177;-78
2020/12/13 05:08:07;;;;;;;38.90;22.60;;;;;;;;;;5034866;28;20234;-78
2020/12/13 05:10:37;;;;;;;29.70;19.67;;;;;;;;;;5034679;28;20604;-78
2020/12/13 05:13:03;;;;;;;33.87;20.03;;;;;;;;;;5034999;28;20165;-78
2020/12/13 05:15:28;;;;;;;36.47;23.40;;;;;;;;;;5034301;28;20169;-78
2020/12/13 05:17:58;;;;;;;22.33;14.97;;;;;;;;;;5034202;28;20176;-78
2020/12/13 05:20:23;;;;;;;22.43;14.70;;;;;;;;;;5034522;28;20184;-78
2020/12/13 05:22:50;;;;;;;21.10;14.73;;;;;;;;;;5034656;28;20177;-78
2020/12/13 05:25:15;;;;;;;25.43;16.30;;;;;;;;;;5034042;28;20539;-78
2020/12/13 05:27:41;;;;;;;26.93;16.53;;;;;;;;;;5034250;28;20206;-77
2020/12/13 05:30:07;;;;;;;28.03;17.13;;;;;;;;;;5034797;28;20196;-77
2020/12/13 05:32:33;;;;;;;23.77;16.83;;;;;;;;;;5034358;28;20172;-78
2020/12/13 05:34:58;;;;;;;27.60;20.00;;;;;;;;;;5034258;28;20523;-78
2020/12/13 05:37:23;;;;;;;23.63;15.60;;;;;;;;;;5034458;28;20597;-78
2020/12/13 05:39:50;;;;;;;27.57;18.00;;;;;;;;;;5033842;28;20173;-78
2020/12/13 05:42:27;;;;;;;28.57;20.50;;;;;;;;;;5034125;28;20547;-78
2020/12/13 05:52:41;;;;;;;28.63;19.43;;;;;;;;;;5034076;28;20252;-78
2020/12/13 05:55:06;;;;;;;32.07;22.90;;;;;;;;;;5034298;28;20161;-78
2020/12/13 05:57:32;;;;;;;48.77;31.77;;;;;;;;;;5034273;28;20238;-78
2020/12/13 05:59:58;;;;;;;34.57;21.37;;;;;;;;;;5033772;28;20643;-78
2020/12/13 06:02:26;;;;;;;37.17;23.20;;;;;;;;;;5033576;28;20172;-78
2020/12/13 06:04:54;;;;;;;39.27;22.67;;;;;;;;;;5033872;28;20180;-78
2020/12/13 06:07:23;;;;;;;51.50;33.63;;;;;;;;;;5033451;28;20208;-78
2020/12/13 06:09:53;;;;;;;50.07;32.40;;;;;;;;;;5034039;28;20172;-78
2020/12/13 06:12:24;;;;;;;36.63;24.13;;;;;;;;;;5039267;28;20161;-78
2020/12/13 06:14:52;;;;;;;43.03;27.83;;;;;;;;;;5040443;28;20168;-78
2020/12/13 06:17:17;;;;;;;32.63;19.83;;;;;;;;;;5041130;28;20184;-77
2020/12/13 06:19:43;;;;;;;24.00;15.97;;;;;;;;;;5040326;28;20172;-78
2020/12/13 06:22:12;;;;;;;26.03;15.97;;;;;;;;;;5040036;28;20209;-77
2020/12/13 06:24:37;;;;;;;26.00;16.37;;;;;;;;;;5040098;28;20234;-78
2020/12/13 06:27:03;;;;;;;21.50;14.70;;;;;;;;;;5040825;28;20204;-78
2020/12/13 06:29:29;;;;;;;16.40;11.50;;;;;;;;;;5040488;28;20552;-78
2020/12/13 06:31:56;;;;;;;17.40;11.47;;;;;;;;;;5039900;28;20609;-78
2020/12/13 06:34:21;;;;;;;17.83;12.40;;;;;;;;;;5040756;28;20169;-78
2020/12/13 06:36:47;;;;;;;22.57;15.33;;;;;;;;;;5040223;28;20195;-78
2020/12/13 06:39:16;;;;;;;23.50;15.27;;;;;;;;;;5039956;28;20173;-78
2020/12/13 06:41:43;;;;;;;26.37;16.30;;;;;;;;;;5039900;28;20169;-78
2020/12/13 06:44:08;;;;;;;26.17;19.13;;;;;;;;;;5040272;28;20275;-78
2020/12/13 06:46:38;;;;;;;36.33;26.10;;;;;;;;;;5040024;28;20679;-78
2020/12/13 06:49:03;;;;;;;25.67;16.80;;;;;;;;;;5040103;28;20172;-77
2020/12/13 06:51:30;;;;;;;23.90;16.70;;;;;;;;;;5040346;28;20168;-77
2020/12/13 06:53:56;;;;;;;32.67;23.90;;;;;;;;;;5039783;28;20164;-77
2020/12/13 06:56:22;;;;;;;27.67;20.13;;;;;;;;;;5040530;28;20176;-78
2020/12/13 06:59:00;;;;;;;22.13;16.67;;;;;;;;;;5039817;28;20224;-77
2020/12/13 07:01:25;;;;;;;21.30;13.83;;;;;;;;;;5040100;28;20156;-77
2020/12/13 07:03:51;;;;;;;34.17;19.30;;;;;;;;;;5039928;28;20630;-77
2020/12/13 07:06:25;;;;;;;23.17;15.63;;;;;;;;;;5039923;28;20177;-77
2020/12/13 07:09:01;;;;;;;21.53;12.87;;;;;;;;;;5040049;28;20168;-78
2020/12/13 07:11:29;;;;;;;21.97;14.33;;;;;;;;;;5039892;28;20164;-77
2020/12/13 07:14:02;;;;;;;28.40;16.10;;;;;;;;;;5040378;28;20751;-77
2020/12/13 07:16:37;;;;;;;28.57;18.07;;;;;;;;;;5039881;28;20181;-77
2020/12/13 07:19:03;;;;;;;32.70;22.53;;;;;;;;;;5040628;28;20160;-77
2020/12/13 07:21:29;;;;;;;35.93;22.57;;;;;;;;;;5040011;28;20172;-77
2020/12/13 07:23:57;;;;;;;32.57;20.00;;;;;;;;;;5036191;28;20169;-77
2020/12/13 07:26:22;;;;;;;35.87;22.90;;;;;;;;;;5037131;28;20168;-78
2020/12/13 07:28:48;;;;;;;37.43;23.00;;;;;;;;;;5036243;28;20179;-78
2020/12/13 07:31:14;;;;;;;33.93;21.03;;;;;;;;;;5036682;28;20192;-78
2020/12/13 07:33:40;;;;;;;29.97;19.73;;;;;;;;;;5036271;28;20172;-78
2020/12/13 07:36:05;;;;;;;32.67;19.20;;;;;;;;;;5037045;28;20626;-78
2020/12/13 07:38:31;;;;;;;28.43;19.43;;;;;;;;;;5036193;28;20172;-78
2020/12/13 07:40:57;;;;;;;30.73;18.87;;;;;;;;;;5036448;28;20176;-78
2020/12/13 07:43:22;;;;;;;46.43;27.27;;;;;;;;;;5036372;28;20219;-77
2020/12/13 07:45:48;;;;;;;32.23;19.93;;;;;;;;;;5036831;28;20172;-78
2020/12/13 07:48:15;;;;;;;27.43;17.47;;;;;;;;;;5036190;28;20223;-78
2020/12/13 07:50:44;;;;;;;30.70;21.20;;;;;;;;;;5036282;28;20184;-77
2020/12/13 07:53:09;;;;;;;36.13;24.17;;;;;;;;;;5036145;28;20603;-77
2020/12/13 07:55:41;;;;;;;43.30;27.30;;;;;;;;;;5035981;28;20176;-78
2020/12/13 07:58:06;;;;;;;36.17;22.93;;;;;;;;;;5035656;28;20219;-78
2020/12/13 08:00:31;;;;;;;71.17;40.23;;;;;;;;;;5036306;28;20160;-78
2020/12/13 08:02:57;;;;;;;60.23;40.40;;;;;;;;;;5036017;28;20500;-78
2020/12/13 08:05:26;;;;;;;47.10;30.73;;;;;;;;;;5035975;28;20526;-78
2020/12/13 08:07:58;;;;;;;45.43;29.20;;;;;;;;;;5035470;28;20212;-78
2020/12/13 08:10:24;;;;;;;49.27;32.43;;;;;;;;;;5035537;28;20248;-78
2020/12/13 08:12:52;;;;;;;28.60;18.77;;;;;;;;;;5035712;28;20196;-78
2020/12/13 08:15:18;;;;;;;73.13;44.03;;;;;;;;;;5036301;28;20173;-78
2020/12/13 08:17:44;;;;;;;37.27;23.17;;;;;;;;;;5035620;28;20608;-77
2020/12/13 08:20:11;;;;;;;52.40;29.87;;;;;;;;;;5034181;28;20188;-78
2020/12/13 08:22:37;;;;;;;33.93;21.57;;;;;;;;;;5035240;28;20271;-78
2020/12/13 08:25:06;;;;;;;36.67;23.60;;;;;;;;;;5035339;28;20168;-78
2020/12/13 08:27:34;;;;;;;36.20;22.13;;;;;;;;;;5019589;28;20578;-78
2020/12/13 08:29:59;;;;;;;34.77;23.83;;;;;;;;;;5015270;28;20171;-78
2020/12/13 08:32:29;;;;;;;37.40;23.67;;;;;;;;;;5015629;28;20568;-78
2020/12/13 08:34:55;;;;;;;114.20;56.40;;;;;;;;;;5015217;28;20529;-78
2020/12/13 08:37:24;;;;;;;57.93;34.33;;;;;;;;;;5015733;28;20181;-78
2020/12/13 08:39:49;;;;;;;38.93;24.17;;;;;;;;;;5015184;28;20176;-78
2020/12/13 08:42:21;;;;;;;30.27;18.60;;;;;;;;;;5015714;28;20174;-78
2020/12/13 08:44:46;;;;;;;33.40;20.53;;;;;;;;;;5015437;28;20219;-78
2020/12/13 08:47:12;;;;;;;43.53;29.90;;;;;;;;;;5014999;28;20591;-78
2020/12/13 08:49:41;;;;;;;34.80;21.63;;;;;;;;;;5014949;28;20636;-78
2020/12/13 08:52:16;;;;;;;55.10;32.17;;;;;;;;;;5015133;28;20173;-78
2020/12/13 08:54:54;;;;;;;48.47;29.07;;;;;;;;;;5014856;28;20165;-78
2020/12/13 08:57:29;;;;;;;35.37;22.63;;;;;;;;;;5015104;28;20655;-77
2020/12/13 08:59:58;;;;;;;33.67;22.00;;;;;;;;;;5015607;28;20232;-78
2020/12/13 09:02:23;;;;;;;33.73;22.17;;;;;;;;;;5015327;28;20200;-77
2020/12/13 09:04:58;;;;;;;38.17;26.13;;;;;;;;;;5015582;28;20536;-78
2020/12/13 09:07:24;;;;;;;40.67;27.33;;;;;;;;;;5015236;28;20193;-78
2020/12/13 09:09:49;;;;;;;57.73;33.53;;;;;;;;;;5014897;28;20639;-78
2020/12/13 09:12:18;;;;;;;70.00;38.07;;;;;;;;;;5014884;28;20173;-77
2020/12/13 09:14:44;;;;;;;29.10;19.13;;;;;;;;;;5014675;28;20173;-78
2020/12/13 09:17:09;;;;;;;33.80;22.27;;;;;;;;;;5014379;28;20200;-77
2020/12/13 09:19:34;;;;;;;41.13;27.50;;;;;;;;;;5015172;28;20169;-77
2020/12/13 09:22:00;;;;;;;31.30;20.77;;;;;;;;;;5033493;28;20188;-78
2020/12/13 09:24:31;;;;;;;39.73;23.40;;;;;;;;;;5034453;28;20528;-78
2020/12/13 09:26:58;;;;;;;31.13;20.73;;;;;;;;;;5034470;28;20218;-78
2020/12/13 09:29:23;;;;;;;27.63;18.60;;;;;;;;;;5034858;28;20168;-77
2020/12/13 09:31:48;;;;;;;30.37;19.83;;;;;;;;;;5034442;28;20658;-77
2020/12/13 09:34:14;;;;;;;37.53;25.03;;;;;;;;;;5034031;28;20226;-77
2020/12/13 09:36:41;;;;;;;41.53;29.47;;;;;;;;;;5034422;28;20200;-78
2020/12/13 09:39:06;;;;;;;46.33;31.47;;;;;;;;;;5033884;28;20530;-77
2020/12/13 09:41:32;;;;;;;31.07;18.23;;;;;;;;;;5033880;28;20168;-77
2020/12/13 09:43:57;;;;;;;29.37;19.90;;;;;;;;;;5033770;28;20227;-78
2020/12/13 09:46:22;;;;;;;42.93;26.97;;;;;;;;;;5033104;28;20171;-79
2020/12/13 09:48:48;;;;;;;39.83;25.40;;;;;;;;;;5034254;28;20216;-78
2020/12/13 09:51:17;;;;;;;27.33;18.33;;;;;;;;;;5034330;28;20211;-79
2020/12/13 09:53:43;;;;;;;31.97;20.80;;;;;;;;;;5028635;28;20176;-78
2020/12/13 09:56:08;;;;;;;29.80;19.77;;;;;;;;;;5031844;28;20172;-80
2020/12/13 09:58:33;;;;;;;92.30;36.57;;;;;;;;;;5033203;28;20282;-79
2020/12/13 10:00:59;;;;;;;65.53;32.13;;;;;;;;;;5033035;28;20180;-79
2020/12/13 10:03:24;;;;;;;52.47;28.97;;;;;;;;;;5034100;28;20177;-79
2020/12/13 10:06:26;;;;;;;39.47;24.20;;;;;;;;;;5033547;28;20177;-79
2020/12/13 10:11:21;;;;;;;27.80;18.27;;;;;;;;;;5034321;28;20165;-78
2020/12/13 10:13:46;;;;;;;29.83;18.87;;;;;;;;;;5033605;28;20164;-79
2020/12/13 10:16:14;;;;;;;75.13;48.97;;;;;;;;;;5033787;28;20263;-78
2020/12/13 10:18:39;;;;;;;32.60;20.80;;;;;;;;;;5029237;28;20180;-79
2020/12/13 10:21:04;;;;;;;35.47;24.00;;;;;;;;;;5026705;28;20187;-79
2020/12/13 10:23:29;;;;;;;26.10;16.97;;;;;;;;;;5024463;28;20546;-79
2020/12/13 10:25:55;;;;;;;25.57;17.03;;;;;;;;;;5019916;28;20169;-78
2020/12/13 10:28:20;;;;;;;35.53;20.57;;;;;;;;;;5013763;28;20197;-79
2020/12/13 10:30:50;;;;;;;30.23;18.63;;;;;;;;;;5031098;28;20271;-79
2020/12/13 10:33:15;;;;;;;51.00;33.43;;;;;;;;;;5034086;28;20502;-79
2020/12/13 10:35:40;;;;;;;39.73;25.20;;;;;;;;;;5032123;28;20295;-79
2020/12/13 10:38:06;;;;;;;28.97;19.90;;;;;;;;;;5033257;28;20693;-79
2020/12/13 10:40:33;;;;;;;27.90;18.97;;;;;;;;;;5033761;28;20173;-79
2020/12/13 10:42:58;;;;;;;26.90;17.50;;;;;;;;;;5031410;28;20542;-80
2020/12/13 10:45:24;;;;;;;27.27;17.70;;;;;;;;;;5032171;28;20169;-80
2020/12/13 10:47:49;;;;;;;25.83;16.70;;;;;;;;;;5031789;28;20200;-79
2020/12/13 10:50:14;;;;;;;32.27;19.60;;;;;;;;;;5028972;28;20184;-80
2020/12/13 10:52:40;;;;;;;29.63;19.37;;;;;;;;;;5022798;28;20580;-79
2020/12/13 10:55:08;;;;;;;24.33;16.63;;;;;;;;;;5020322;28;20198;-79
2020/12/13 10:57:33;;;;;;;25.27;17.20;;;;;;;;;;5023934;28;20542;-79
2020/12/13 10:59:58;;;;;;;29.70;20.27;;;;;;;;;;5033610;28;20315;-79
2020/12/13 11:02:24;;;;;;;25.07;17.10;;;;;;;;;;5036823;28;20168;-79
2020/12/13 11:04:49;;;;;;;32.27;22.47;;;;;;;;;;5037231;28;20176;-79
2020/12/13 11:07:14;;;;;;;27.90;17.87;;;;;;;;;;5036832;28;20231;-79
2020/12/13 11:09:40;;;;;;;26.03;17.77;;;;;;;;;;5033703;28;20184;-80
2020/12/13 11:12:05;;;;;;;33.00;23.70;;;;;;;;;;5035438;28;20530;-79
2020/12/13 11:14:30;;;;;;;35.50;24.63;;;;;;;;;;5036501;28;20222;-79
2020/12/13 11:16:56;;;;;;;89.27;54.43;;;;;;;;;;5036776;28;20699;-79
2020/12/13 11:19:21;;;;;;;131.70;78.87;;;;;;;;;;5036765;28;20215;-79
2020/12/13 11:21:46;;;;;;;24.47;15.60;;;;;;;;;;5036736;28;20169;-79
2020/12/13 11:24:12;;;;;;;23.83;17.73;;;;;;;;;;5037186;28;20173;-79
2020/12/13 11:26:37;;;;;;;27.30;17.93;;;;;;;;;;5029928;28;20212;-78
2020/12/13 11:29:02;;;;;;;26.90;18.53;;;;;;;;;;5036315;28;20184;-78
2020/12/13 11:31:28;;;;;;;24.20;16.30;;;;;;;;;;5036509;28;20196;-77
2020/12/13 11:33:53;;;;;;;26.80;18.03;;;;;;;;;;5036250;28;20691;-78
2020/12/13 11:36:18;;;;;;;48.17;30.90;;;;;;;;;;5034883;28;20184;-78
2020/12/13 11:38:44;;;;;;;33.17;21.93;;;;;;;;;;5035298;28;20191;-78
2020/12/13 11:41:09;;;;;;;30.57;20.47;;;;;;;;;;5035885;28;20176;-78
2020/12/13 11:43:34;;;;;;;30.53;20.43;;;;;;;;;;5035975;28;20168;-78
2020/12/13 11:46:00;;;;;;;31.80;20.50;;;;;;;;;;5036601;28;20226;-78
2020/12/13 11:48:25;;;;;;;30.60;21.57;;;;;;;;;;5035878;28;20667;-78
2020/12/13 11:50:52;;;;;;;42.93;26.53;;;;;;;;;;5035924;28;20180;-78
2020/12/13 11:53:17;;;;;;;65.07;34.77;;;;;;;;;;5036095;28;20176;-78
2020/12/13 11:55:43;;;;;;;82.27;52.37;;;;;;;;;;5035765;28;20268;-78
2020/12/13 11:58:08;;;;;;;137.40;87.13;;;;;;;;;;5035529;28;20509;-79
2020/12/13 12:00:34;;;;;;;37.80;24.30;;;;;;;;;;5036040;28;20164;-78
2020/12/13 12:02:59;;;;;;;88.97;61.67;;;;;;;;;;5035660;28;20164;-78
2020/12/13 12:05:24;;;;;;;45.50;31.13;;;;;;;;;;5035911;28;20172;-78
2020/12/13 12:07:49;;;;;;;43.57;31.27;;;;;;;;;;5035399;28;20207;-78
2020/12/13 12:10:15;;;;;;;35.87;23.47;;;;;;;;;;5025472;28;20184;-78
2020/12/13 12:12:40;;;;;;;32.13;20.80;;;;;;;;;;5015435;28;20223;-78
2020/12/13 12:15:05;;;;;;;27.47;17.43;;;;;;;;;;5015606;28;20173;-78
2020/12/13 12:17:31;;;;;;;28.53;18.77;;;;;;;;;;5015593;28;20177;-78
2020/12/13 12:19:56;;;;;;;37.73;24.67;;;;;;;;;;5015795;28;20196;-78
2020/12/13 12:22:21;;;;;;;29.73;20.37;;;;;;;;;;5016008;28;20196;-78
2020/12/13 12:24:47;;;;;;;57.37;33.97;;;;;;;;;;5015707;28;20177;-78
2020/12/13 12:27:12;;;;;;;38.23;23.23;;;;;;;;;;5015278;28;20236;-78
2020/12/13 12:29:37;;;;;;;31.97;20.53;;;;;;;;;;5015925;28;20173;-78
2020/12/13 12:32:03;;;;;;;51.07;32.43;;;;;;;;;;5015476;28;20200;-79
2020/12/13 12:34:28;;;;;;;34.77;23.17;;;;;;;;;;5015503;28;20169;-78
2020/12/13 12:36:53;;;;;;;54.20;30.20;;;;;;;;;;5023392;28;20696;-80
2020/12/13 12:39:19;;;;;;;61.57;40.20;;;;;;;;;;5031854;28;20183;-80
2020/12/13 12:41:44;;;;;;;32.17;19.53;;;;;;;;;;5033159;28;20230;-81
2020/12/13 12:44:09;;;;;;;36.20;25.53;;;;;;;;;;5033115;28;20173;-79
2020/12/13 12:46:35;;;;;;;27.73;17.17;;;;;;;;;;5032244;28;20164;-79
2020/12/13 12:49:00;;;;;;;25.03;16.50;;;;;;;;;;5033027;28;20169;-79
2020/12/13 12:51:28;;;;;;;32.77;22.13;;;;;;;;;;5032965;28;20642;-79
2020/12/13 12:53:53;;;;;;;51.37;31.57;;;;;;;;;;5031879;28;20502;-79
2020/12/13 12:56:19;;;;;;;37.23;23.70;;;;;;;;;;5032940;28;20226;-79
2020/12/13 13:01:36;;;;;;;56.17;35.70;;;;;;;;;;5034828;28;20504;-78
2020/12/13 13:04:05;;;;;;;43.63;29.07;;;;;;;;;;5034747;28;20637;-78
2020/12/13 13:06:44;;;;;;;61.50;39.63;;;;;;;;;;5034383;28;20179;-78
2020/12/13 13:11:36;;;;;;;65.27;31.43;;;;;;;;;;5031101;28;20196;-78
2020/12/13 13:14:02;;;;;;;58.57;31.87;;;;;;;;;;5034501;28;20180;-79
2020/12/13 13:16:27;;;;;;;39.40;24.70;;;;;;;;;;5034793;28;20181;-79
2020/12/13 13:18:55;;;;;;;41.37;24.77;;;;;;;;;;5034643;28;20180;-79
2020/12/13 13:21:21;;;;;;;41.93;24.43;;;;;;;;;;5026184;28;20176;-79
2020/12/13 13:23:46;;;;;;;40.90;24.43;;;;;;;;;;5034426;28;20168;-79
2020/12/13 13:26:18;;;;;;;42.23;26.17;;;;;;;;;;5034230;28;20172;-79
2020/12/13 13:28:43;;;;;;;40.10;25.73;;;;;;;;;;5034234;28;20203;-78
2020/12/13 13:31:09;;;;;;;55.90;31.20;;;;;;;;;;5034464;28;20188;-79
2020/12/13 13:33:34;;;;;;;43.70;25.80;;;;;;;;;;5033906;28;20642;-78
2020/12/13 13:36:00;;;;;;;54.03;33.43;;;;;;;;;;5034050;28;20251;-78
2020/12/13 13:38:25;;;;;;;46.27;28.53;;;;;;;;;;5034282;28;20180;-78
2020/12/13 13:40:50;;;;;;;40.23;23.93;;;;;;;;;;5034278;28;20192;-78
2020/12/13 13:43:16;;;;;;;41.10;25.20;;;;;;;;;;5033737;28;20651;-78
2020/12/13 13:46:12;;;;;;;51.83;28.97;;;;;;;;;;5034602;28;20171;-78
2020/12/13 13:50:57;;;;;;;44.80;26.50;;;;;;;;;;5033886;28;20220;-78
2020/12/13 13:53:23;;;;;;;47.57;27.47;;;;;;;;;;5033934;28;20168;-77
2020/12/13 13:55:55;;;;;;;42.93;27.70;;;;;;;;;;5033636;28;20681;-77
2020/12/13 13:58:24;;;;;;;37.23;22.03;;;;;;;;;;5032687;28;20228;-78
2020/12/13 14:00:49;;;;;;;34.50;22.23;;;;;;;;;;5033722;28;20195;-77
2020/12/13 14:03:15;;;;;;;44.73;30.87;;;;;;;;;;5033411;28;20632;-78
2020/12/13 14:05:47;;;;;;;32.80;20.87;;;;;;;;;;5033489;28;20663;-78
2020/12/13 14:08:36;;;;;;;25.93;17.13;;;;;;;;;;5033998;28;20516;-78
2020/12/13 14:10:58;;;;;;;31.97;19.17;;;;;;;;;;5032083;28;20211;-78
2020/12/13 14:13:23;;;;;;;34.10;20.70;;;;;;;;;;5027304;28;20177;-78
2020/12/13 14:15:49;;;;;;;40.03;24.10;;;;;;;;;;5012689;28;20232;-80
2020/12/13 14:18:14;;;;;;;32.23;19.27;;;;;;;;;;5032444;28;20580;-79
2020/12/13 14:20:39;;;;;;;25.67;16.60;;;;;;;;;;5033469;28;20168;-78
2020/12/13 14:23:05;;;;;;;37.77;22.83;;;;;;;;;;5033982;28;20180;-78
2020/12/13 14:25:30;;;;;;;35.00;21.90;;;;;;;;;;5033440;28;20524;-79
2020/12/13 14:27:55;;;;;;;36.90;23.80;;;;;;;;;;5034041;28;20200;-78
2020/12/13 14:30:20;;;;;;;52.30;29.67;;;;;;;;;;5033623;28;20235;-79
2020/12/13 14:32:46;;;;;;;35.47;22.27;;;;;;;;;;5036294;28;20172;-78